WAT91LY RJOA-RJSS
Flight info
| Callsign | WAT91LY |
|---|---|
| Flight time | 1h 7m |
| Altitude | 37000 |
| Route | KIJYY TOZAN YME Y381 KMC Y515 LANCE |
| Aircraft | B738/M-SDE2E3FGHIRWXY/LB1 |
Departure
| Time | 2026-04-30 20:55 |
|---|---|
| Airport | Hiroshima Airport (RJOA) |
Arrival
| Time | 2026-04-30 22:02 |
|---|---|
| Airport | Sendai Airport (RJSS) |
| Time | Latitude | Longitude | Altitude | Speed | Heading |
|---|---|---|---|---|---|
| 2026-04-30 20:30 | 34.43901 | 132.91852 | 1077 ft | 0 kts | 0° |
| 2026-04-30 20:44 | 34.43897 | 132.91852 | 1077 ft | 3 kts | 0° |
| 2026-04-30 20:44 | 34.43845 | 132.91852 | 1079 ft | 2 kts | 360° |
| 2026-04-30 20:45 | 34.43798 | 132.91835 | 1078 ft | 4 kts | 35° |
| 2026-04-30 20:45 | 34.43787 | 132.91826 | 1080 ft | 1 kts | 37° |
| 2026-04-30 20:49 | 34.43786 | 132.91834 | 1078 ft | 3 kts | 94° |
| 2026-04-30 20:50 | 34.43770 | 132.91990 | 1074 ft | 12 kts | 90° |
| 2026-04-30 20:50 | 34.43770 | 132.92086 | 1077 ft | 11 kts | 90° |
| 2026-04-30 20:50 | 34.43770 | 132.92178 | 1078 ft | 11 kts | 90° |
| 2026-04-30 20:50 | 34.43770 | 132.92274 | 1079 ft | 12 kts | 88° |
| 2026-04-30 20:51 | 34.43771 | 132.92387 | 1078 ft | 14 kts | 90° |
| 2026-04-30 20:51 | 34.43771 | 132.92611 | 1081 ft | 13 kts | 90° |
| 2026-04-30 20:51 | 34.43771 | 132.92718 | 1081 ft | 13 kts | 90° |
| 2026-04-30 20:52 | 34.43771 | 132.92823 | 1079 ft | 13 kts | 90° |
| 2026-04-30 20:52 | 34.43772 | 132.92932 | 1077 ft | 14 kts | 89° |
| 2026-04-30 20:52 | 34.43772 | 132.93206 | 1077 ft | 16 kts | 90° |
| 2026-04-30 20:53 | 34.43772 | 132.93339 | 1073 ft | 15 kts | 90° |
| 2026-04-30 20:53 | 34.43772 | 132.93466 | 1071 ft | 15 kts | 92° |
| 2026-04-30 20:53 | 34.43716 | 132.93557 | 1074 ft | 14 kts | 165° |
| 2026-04-30 20:54 | 34.43608 | 132.93473 | 1077 ft | 18 kts | 268° |
| 2026-04-30 20:54 | 34.43608 | 132.93030 | 1077 ft | 86 kts | 270° |
| 2026-04-30 20:54 | 34.43607 | 132.92051 | 1079 ft | 143 kts | 269° |
| 2026-04-30 20:55 | 34.43565 | 132.89345 | 2043 ft | 168 kts | 261° |
| 2026-04-30 20:55 | 34.43403 | 132.87958 | 2807 ft | 169 kts | 261° |
| 2026-04-30 20:55 | 34.43229 | 132.86432 | 3153 ft | 196 kts | 261° |
| 2026-04-30 20:56 | 34.42846 | 132.82835 | 3899 ft | 227 kts | 262° |
| 2026-04-30 20:56 | 34.42836 | 132.80861 | 4273 ft | 245 kts | 284° |
| 2026-04-30 20:56 | 34.45154 | 132.77807 | 5738 ft | 269 kts | 334° |
| 2026-04-30 20:57 | 34.47054 | 132.77495 | 6456 ft | 287 kts | 1° |
| 2026-04-30 20:57 | 34.48987 | 132.78289 | 7106 ft | 303 kts | 28° |
| 2026-04-30 20:57 | 34.50646 | 132.79909 | 7793 ft | 310 kts | 44° |
| 2026-04-30 20:58 | 34.53615 | 132.83790 | 9309 ft | 317 kts | 50° |
| 2026-04-30 20:58 | 34.55108 | 132.85796 | 9982 ft | 323 kts | 50° |
| 2026-04-30 20:58 | 34.56650 | 132.87837 | 10429 ft | 338 kts | 49° |
| 2026-04-30 20:58 | 34.58304 | 132.89993 | 10671 ft | 358 kts | 49° |
| 2026-04-30 20:59 | 34.61798 | 132.94469 | 11925 ft | 369 kts | 48° |
| 2026-04-30 20:59 | 34.63583 | 132.96734 | 12636 ft | 374 kts | 48° |
| 2026-04-30 21:00 | 34.67213 | 133.01331 | 13978 ft | 385 kts | 48° |
| 2026-04-30 21:00 | 34.70966 | 133.06083 | 15300 ft | 394 kts | 48° |
| 2026-04-30 21:01 | 34.74846 | 133.11008 | 16431 ft | 410 kts | 49° |
| 2026-04-30 21:01 | 34.76830 | 133.13528 | 17021 ft | 417 kts | 49° |
| 2026-04-30 21:01 | 34.80904 | 133.18708 | 18191 ft | 430 kts | 49° |
| 2026-04-30 21:02 | 34.82982 | 133.21352 | 18747 ft | 434 kts | 49° |
| 2026-04-30 21:02 | 34.85081 | 133.24027 | 19239 ft | 440 kts | 49° |
| 2026-04-30 21:02 | 34.87206 | 133.26749 | 19698 ft | 446 kts | 51° |
| 2026-04-30 21:02 | 34.88968 | 133.29838 | 20132 ft | 442 kts | 72° |
| 2026-04-30 21:03 | 34.90106 | 133.33306 | 20718 ft | 441 kts | 76° |
| 2026-04-30 21:03 | 34.91217 | 133.36815 | 21261 ft | 446 kts | 76° |
| 2026-04-30 21:03 | 34.92329 | 133.40303 | 21824 ft | 449 kts | 76° |
| 2026-04-30 21:03 | 34.93477 | 133.43854 | 22321 ft | 453 kts | 76° |
| 2026-04-30 21:04 | 34.94652 | 133.47454 | 22753 ft | 460 kts | 76° |
| 2026-04-30 21:04 | 34.95850 | 133.51102 | 23230 ft | 466 kts | 76° |
| 2026-04-30 21:04 | 34.98288 | 133.58489 | 24128 ft | 473 kts | 76° |
| 2026-04-30 21:05 | 34.99521 | 133.62218 | 24648 ft | 475 kts | 76° |
| 2026-04-30 21:05 | 35.00753 | 133.65949 | 25131 ft | 476 kts | 76° |
| 2026-04-30 21:05 | 35.01992 | 133.69716 | 25607 ft | 479 kts | 76° |
| 2026-04-30 21:05 | 35.03235 | 133.73505 | 26025 ft | 483 kts | 76° |
| 2026-04-30 21:06 | 35.04486 | 133.77326 | 26436 ft | 486 kts | 76° |
| 2026-04-30 21:06 | 35.05745 | 133.81173 | 26853 ft | 489 kts | 76° |
| 2026-04-30 21:06 | 35.07008 | 133.85036 | 27238 ft | 492 kts | 76° |
| 2026-04-30 21:06 | 35.08277 | 133.88922 | 27685 ft | 493 kts | 76° |
| 2026-04-30 21:07 | 35.09550 | 133.92824 | 28105 ft | 496 kts | 76° |
| 2026-04-30 21:07 | 35.10827 | 133.96745 | 28445 ft | 499 kts | 76° |
| 2026-04-30 21:07 | 35.12114 | 134.00704 | 28793 ft | 502 kts | 76° |
| 2026-04-30 21:07 | 35.13406 | 134.04681 | 29120 ft | 505 kts | 76° |
| 2026-04-30 21:08 | 35.14705 | 134.08682 | 29504 ft | 508 kts | 76° |
| 2026-04-30 21:08 | 35.16000 | 134.12711 | 29857 ft | 509 kts | 77° |
| 2026-04-30 21:08 | 35.17272 | 134.16749 | 30156 ft | 510 kts | 77° |
| 2026-04-30 21:08 | 35.18536 | 134.20818 | 30317 ft | 513 kts | 78° |
| 2026-04-30 21:09 | 35.19801 | 134.24909 | 30483 ft | 517 kts | 78° |
| 2026-04-30 21:09 | 35.21082 | 134.29041 | 30681 ft | 522 kts | 78° |
| 2026-04-30 21:09 | 35.22376 | 134.33205 | 30916 ft | 525 kts | 77° |
| 2026-04-30 21:09 | 35.23678 | 134.37384 | 31251 ft | 525 kts | 77° |
| 2026-04-30 21:10 | 35.24979 | 134.41560 | 31540 ft | 527 kts | 78° |
| 2026-04-30 21:10 | 35.26269 | 134.45716 | 31677 ft | 531 kts | 78° |
| 2026-04-30 21:10 | 35.28952 | 134.54247 | 31702 ft | 541 kts | 77° |
| 2026-04-30 21:11 | 35.31730 | 134.62740 | 31622 ft | 532 kts | 76° |
| 2026-04-30 21:11 | 35.34469 | 134.71132 | 31681 ft | 531 kts | 76° |
| 2026-04-30 21:12 | 35.37184 | 134.79561 | 31674 ft | 533 kts | 77° |
| 2026-04-30 21:12 | 35.39897 | 134.88028 | 31686 ft | 535 kts | 77° |
| 2026-04-30 21:13 | 35.42622 | 134.96537 | 31697 ft | 538 kts | 77° |
| 2026-04-30 21:13 | 35.45358 | 135.05082 | 31687 ft | 534 kts | 77° |
| 2026-04-30 21:14 | 35.48376 | 135.13384 | 31687 ft | 541 kts | 65° |
| 2026-04-30 21:14 | 35.53015 | 135.20790 | 31690 ft | 552 kts | 51° |
| 2026-04-30 21:15 | 35.58251 | 135.27725 | 31683 ft | 554 kts | 51° |
| 2026-04-30 21:15 | 35.62604 | 135.33503 | 31690 ft | 554 kts | 51° |
| 2026-04-30 21:16 | 35.68622 | 135.41672 | 31683 ft | 555 kts | 52° |
| 2026-04-30 21:16 | 35.72938 | 135.47603 | 31689 ft | 555 kts | 52° |
| 2026-04-30 21:17 | 35.78089 | 135.54698 | 31682 ft | 556 kts | 52° |
| 2026-04-30 21:17 | 35.83253 | 135.61814 | 31677 ft | 558 kts | 52° |
| 2026-04-30 21:18 | 35.88389 | 135.68899 | 31677 ft | 557 kts | 52° |
| 2026-04-30 21:18 | 35.93552 | 135.76037 | 31680 ft | 557 kts | 52° |
| 2026-04-30 21:19 | 35.98697 | 135.83165 | 31684 ft | 556 kts | 52° |
| 2026-04-30 21:19 | 36.03837 | 135.90303 | 31701 ft | 555 kts | 52° |
| 2026-04-30 21:20 | 36.08961 | 135.97435 | 31714 ft | 554 kts | 52° |
| 2026-04-30 21:20 | 36.14075 | 136.04567 | 31685 ft | 553 kts | 52° |
| 2026-04-30 21:21 | 36.19168 | 136.11684 | 31693 ft | 549 kts | 52° |
| 2026-04-30 21:21 | 36.24092 | 136.18570 | 31666 ft | 522 kts | 52° |
| 2026-04-30 21:22 | 36.26491 | 136.21936 | 31670 ft | 520 kts | 52° |
| 2026-04-30 21:23 | 36.36044 | 136.35383 | 31664 ft | 523 kts | 52° |
| 2026-04-30 21:23 | 36.42330 | 136.46257 | 31687 ft | 513 kts | 68° |
| 2026-04-30 21:24 | 36.45624 | 136.54127 | 31677 ft | 513 kts | 69° |
| 2026-04-30 21:24 | 36.48947 | 136.62009 | 31678 ft | 515 kts | 68° |
| 2026-04-30 21:25 | 36.54020 | 136.73807 | 31698 ft | 516 kts | 68° |
| 2026-04-30 21:26 | 36.59099 | 136.85634 | 31704 ft | 516 kts | 68° |
| 2026-04-30 21:27 | 36.64143 | 136.97440 | 31688 ft | 514 kts | 68° |
| 2026-04-30 21:27 | 36.67483 | 137.05307 | 31695 ft | 513 kts | 68° |
| 2026-04-30 21:28 | 36.72471 | 137.17110 | 31695 ft | 514 kts | 68° |
| 2026-04-30 21:29 | 36.77446 | 137.28919 | 31699 ft | 516 kts | 68° |
| 2026-04-30 21:30 | 36.85776 | 137.48782 | 31734 ft | 517 kts | 68° |
| 2026-04-30 21:31 | 36.94090 | 137.68728 | 31746 ft | 517 kts | 68° |
| 2026-04-30 21:32 | 36.99071 | 137.80741 | 31784 ft | 520 kts | 67° |
| 2026-04-30 21:32 | 37.02395 | 137.88779 | 31752 ft | 518 kts | 68° |
| 2026-04-30 21:33 | 37.07329 | 138.00746 | 31757 ft | 513 kts | 68° |
| 2026-04-30 21:34 | 37.10582 | 138.08664 | 31761 ft | 510 kts | 68° |
| 2026-04-30 21:34 | 37.13794 | 138.16495 | 31310 ft | 500 kts | 68° |
| 2026-04-30 21:34 | 37.15379 | 138.20368 | 30843 ft | 500 kts | 68° |
| 2026-04-30 21:35 | 37.16944 | 138.24205 | 30397 ft | 499 kts | 67° |
| 2026-04-30 21:35 | 37.18539 | 138.28115 | 30061 ft | 496 kts | 68° |
| 2026-04-30 21:35 | 37.20083 | 138.31902 | 29756 ft | 491 kts | 68° |
| 2026-04-30 21:35 | 37.21629 | 138.35698 | 29385 ft | 486 kts | 67° |
| 2026-04-30 21:36 | 37.23159 | 138.39461 | 28979 ft | 483 kts | 67° |
| 2026-04-30 21:36 | 37.24679 | 138.43205 | 28568 ft | 479 kts | 66° |
| 2026-04-30 21:37 | 37.29166 | 138.54286 | 27444 ft | 470 kts | 66° |
| 2026-04-30 21:37 | 37.30643 | 138.57936 | 27067 ft | 467 kts | 65° |
| 2026-04-30 21:37 | 37.32102 | 138.61549 | 26727 ft | 463 kts | 65° |
| 2026-04-30 21:37 | 37.33554 | 138.65145 | 26350 ft | 460 kts | 65° |
| 2026-04-30 21:38 | 37.35001 | 138.68724 | 25963 ft | 458 kts | 64° |
| 2026-04-30 21:38 | 37.36440 | 138.72287 | 25611 ft | 455 kts | 64° |
| 2026-04-30 21:38 | 37.37864 | 138.75817 | 25274 ft | 451 kts | 64° |
| 2026-04-30 21:38 | 37.39276 | 138.79321 | 24933 ft | 447 kts | 64° |
| 2026-04-30 21:39 | 37.40676 | 138.82801 | 24597 ft | 444 kts | 64° |
| 2026-04-30 21:39 | 37.42066 | 138.86261 | 24279 ft | 441 kts | 63° |
| 2026-04-30 21:39 | 37.43445 | 138.89696 | 23969 ft | 437 kts | 63° |
| 2026-04-30 21:39 | 37.44808 | 138.93094 | 23762 ft | 433 kts | 63° |
| 2026-04-30 21:40 | 37.46139 | 138.96419 | 23538 ft | 429 kts | 63° |
| 2026-04-30 21:40 | 37.47477 | 138.99763 | 23301 ft | 425 kts | 63° |
| 2026-04-30 21:40 | 37.48805 | 139.03083 | 23043 ft | 423 kts | 63° |
| 2026-04-30 21:40 | 37.50128 | 139.06396 | 22785 ft | 425 kts | 63° |
| 2026-04-30 21:41 | 37.51462 | 139.09739 | 22541 ft | 425 kts | 63° |
| 2026-04-30 21:41 | 37.52779 | 139.13046 | 22283 ft | 421 kts | 63° |
| 2026-04-30 21:41 | 37.54086 | 139.16329 | 22028 ft | 417 kts | 63° |
| 2026-04-30 21:41 | 37.55382 | 139.19587 | 21798 ft | 414 kts | 63° |
| 2026-04-30 21:42 | 37.56664 | 139.22818 | 21520 ft | 411 kts | 64° |
| 2026-04-30 21:42 | 37.57932 | 139.26030 | 21264 ft | 408 kts | 64° |
| 2026-04-30 21:42 | 37.59187 | 139.29221 | 21044 ft | 405 kts | 64° |
| 2026-04-30 21:42 | 37.60434 | 139.32396 | 20800 ft | 402 kts | 64° |
| 2026-04-30 21:43 | 37.61657 | 139.35509 | 20570 ft | 398 kts | 65° |
| 2026-04-30 21:43 | 37.62879 | 139.38626 | 20320 ft | 395 kts | 65° |
| 2026-04-30 21:43 | 37.64091 | 139.41718 | 20073 ft | 391 kts | 65° |
| 2026-04-30 21:43 | 37.65291 | 139.44782 | 19853 ft | 389 kts | 65° |
| 2026-04-30 21:44 | 37.66484 | 139.47833 | 19615 ft | 386 kts | 65° |
| 2026-04-30 21:44 | 37.67669 | 139.50865 | 19388 ft | 385 kts | 65° |
| 2026-04-30 21:44 | 37.68849 | 139.53887 | 19152 ft | 383 kts | 65° |
| 2026-04-30 21:44 | 37.70027 | 139.56907 | 18917 ft | 381 kts | 66° |
| 2026-04-30 21:45 | 37.71200 | 139.59901 | 18707 ft | 380 kts | 66° |
| 2026-04-30 21:45 | 37.72373 | 139.62888 | 18473 ft | 378 kts | 66° |
| 2026-04-30 21:45 | 37.73541 | 139.65860 | 18257 ft | 377 kts | 66° |
| 2026-04-30 21:45 | 37.74702 | 139.68821 | 18009 ft | 375 kts | 66° |
| 2026-04-30 21:46 | 37.75827 | 139.71735 | 17747 ft | 372 kts | 69° |
| 2026-04-30 21:46 | 37.76662 | 139.74834 | 17492 ft | 366 kts | 79° |
| 2026-04-30 21:46 | 37.77263 | 139.77912 | 17245 ft | 363 kts | 80° |
| 2026-04-30 21:46 | 37.77847 | 139.81006 | 17002 ft | 361 kts | 81° |
| 2026-04-30 21:47 | 37.78425 | 139.84074 | 16752 ft | 357 kts | 81° |
| 2026-04-30 21:47 | 37.79002 | 139.87105 | 16486 ft | 352 kts | 80° |
| 2026-04-30 21:47 | 37.79575 | 139.90096 | 16242 ft | 347 kts | 80° |
| 2026-04-30 21:47 | 37.80143 | 139.93046 | 15985 ft | 343 kts | 80° |
| 2026-04-30 21:48 | 37.80708 | 139.95967 | 15741 ft | 340 kts | 80° |
| 2026-04-30 21:48 | 37.81268 | 139.98870 | 15459 ft | 340 kts | 80° |
| 2026-04-30 21:48 | 37.81830 | 140.01784 | 15254 ft | 343 kts | 81° |
| 2026-04-30 21:48 | 37.82398 | 140.04726 | 15010 ft | 344 kts | 80° |
| 2026-04-30 21:49 | 37.82964 | 140.07654 | 14792 ft | 343 kts | 80° |
| 2026-04-30 21:49 | 37.83528 | 140.10576 | 14563 ft | 341 kts | 80° |
| 2026-04-30 21:49 | 37.84086 | 140.13467 | 14321 ft | 336 kts | 80° |
| 2026-04-30 21:49 | 37.84636 | 140.16318 | 14082 ft | 331 kts | 80° |
| 2026-04-30 21:50 | 37.85177 | 140.19132 | 13875 ft | 327 kts | 80° |
| 2026-04-30 21:50 | 37.85709 | 140.21907 | 13618 ft | 323 kts | 80° |
| 2026-04-30 21:50 | 37.86229 | 140.24618 | 13354 ft | 319 kts | 80° |
| 2026-04-30 21:50 | 37.86747 | 140.27329 | 13079 ft | 318 kts | 80° |
| 2026-04-30 21:51 | 37.87265 | 140.30048 | 12844 ft | 319 kts | 80° |
| 2026-04-30 21:51 | 37.87786 | 140.32784 | 12605 ft | 321 kts | 81° |
| 2026-04-30 21:51 | 37.88309 | 140.35528 | 12351 ft | 319 kts | 81° |
| 2026-04-30 21:51 | 37.88826 | 140.38241 | 12099 ft | 315 kts | 80° |
| 2026-04-30 21:52 | 37.89336 | 140.40922 | 11770 ft | 313 kts | 80° |
| 2026-04-30 21:52 | 37.89842 | 140.43588 | 11470 ft | 310 kts | 81° |
| 2026-04-30 21:52 | 37.90289 | 140.46247 | 11148 ft | 306 kts | 90° |
| 2026-04-30 21:52 | 37.90009 | 140.48837 | 10807 ft | 295 kts | 115° |
| 2026-04-30 21:53 | 37.89096 | 140.51138 | 10430 ft | 291 kts | 124° |
| 2026-04-30 21:53 | 37.88082 | 140.53362 | 10059 ft | 292 kts | 125° |
| 2026-04-30 21:53 | 37.87089 | 140.55578 | 9955 ft | 284 kts | 121° |
| 2026-04-30 21:53 | 37.86586 | 140.57990 | 9725 ft | 291 kts | 96° |
| 2026-04-30 21:54 | 37.86713 | 140.60538 | 9546 ft | 287 kts | 90° |
| 2026-04-30 21:54 | 37.87004 | 140.63036 | 9249 ft | 290 kts | 77° |
| 2026-04-30 21:54 | 37.88033 | 140.65221 | 8903 ft | 300 kts | 47° |
| 2026-04-30 21:54 | 37.89798 | 140.66616 | 8587 ft | 302 kts | 17° |
| 2026-04-30 21:55 | 37.91868 | 140.66869 | 8270 ft | 298 kts | 354° |
| 2026-04-30 21:55 | 37.93923 | 140.66607 | 7851 ft | 294 kts | 352° |
| 2026-04-30 21:55 | 37.95936 | 140.66325 | 7347 ft | 290 kts | 352° |
| 2026-04-30 21:55 | 37.97912 | 140.66066 | 6803 ft | 284 kts | 353° |
| 2026-04-30 21:56 | 37.99892 | 140.65825 | 6014 ft | 288 kts | 356° |
| 2026-04-30 21:56 | 38.01886 | 140.66066 | 5224 ft | 288 kts | 15° |
| 2026-04-30 21:56 | 38.03820 | 140.66673 | 4518 ft | 284 kts | 16° |
| 2026-04-30 21:56 | 38.05735 | 140.67245 | 3839 ft | 281 kts | 15° |
| 2026-04-30 21:57 | 38.07605 | 140.67781 | 3501 ft | 265 kts | 15° |
| 2026-04-30 21:57 | 38.09237 | 140.68562 | 3313 ft | 238 kts | 42° |
| 2026-04-30 21:57 | 38.10284 | 140.69991 | 3183 ft | 209 kts | 64° |
| 2026-04-30 21:57 | 38.10889 | 140.71577 | 2930 ft | 193 kts | 79° |
| 2026-04-30 21:58 | 38.11297 | 140.73171 | 2629 ft | 185 kts | 80° |
| 2026-04-30 21:58 | 38.11669 | 140.74670 | 2397 ft | 174 kts | 80° |
| 2026-04-30 21:58 | 38.12033 | 140.76130 | 2191 ft | 169 kts | 80° |
| 2026-04-30 21:58 | 38.12375 | 140.77471 | 1999 ft | 153 kts | 82° |
| 2026-04-30 21:59 | 38.12688 | 140.78732 | 1840 ft | 149 kts | 83° |
| 2026-04-30 21:59 | 38.12912 | 140.79975 | 1610 ft | 139 kts | 94° |
| 2026-04-30 21:59 | 38.13023 | 140.81209 | 1440 ft | 143 kts | 93° |
| 2026-04-30 22:00 | 38.13190 | 140.83627 | 1094 ft | 141 kts | 91° |
| 2026-04-30 22:00 | 38.13460 | 140.86183 | 649 ft | 150 kts | 86° |
| 2026-04-30 22:00 | 38.13605 | 140.87496 | 349 ft | 150 kts | 82° |
| 2026-04-30 22:01 | 38.13761 | 140.88793 | 168 ft | 149 kts | 80° |
| 2026-04-30 22:01 | 38.13898 | 140.90087 | 35 ft | 146 kts | 80° |
| 2026-04-30 22:01 | 38.14028 | 140.91285 | 14 ft | 119 kts | 82° |
| 2026-04-30 22:01 | 38.14101 | 140.92052 | 18 ft | 56 kts | 83° |
| 2026-04-30 22:02 | 38.14129 | 140.92313 | 18 ft | 18 kts | 82° |
| 2026-04-30 22:02 | 38.14145 | 140.92465 | 21 ft | 12 kts | 82° |
| 2026-04-30 22:02 | 38.14107 | 140.92547 | 19 ft | 15 kts | 161° |
| 2026-04-30 22:02 | 38.14031 | 140.92562 | 14 ft | 18 kts | 180° |
| 2026-04-30 22:03 | 38.13908 | 140.92575 | 11 ft | 17 kts | 172° |
| 2026-04-30 22:03 | 38.13864 | 140.92583 | 11 ft | 0 kts | 172° |